createdAt,value
2023-03-07T00:02:06.786Z,18.05
2023-03-07T00:04:34.201Z,17.65
2023-03-07T00:07:01.893Z,15.57
2023-03-07T00:09:29.178Z,17.92
2023-03-07T00:11:56.695Z,16.38
2023-03-07T00:14:23.952Z,21.00
2023-03-07T00:16:52.121Z,16.77
2023-03-07T00:19:19.455Z,17.92
2023-03-07T00:21:47.095Z,14.00
2023-03-07T00:24:14.308Z,18.17
2023-03-07T00:26:42.046Z,17.23
2023-03-07T00:29:10.494Z,16.25
2023-03-07T00:31:38.389Z,15.07
2023-03-07T00:34:05.918Z,19.02
2023-03-07T00:36:33.590Z,17.80
2023-03-07T00:39:00.875Z,14.85
2023-03-07T00:41:29.344Z,14.65
2023-03-07T00:43:56.755Z,18.98
2023-03-07T00:46:25.911Z,14.75
2023-03-07T00:48:53.415Z,14.38
2023-03-07T00:51:22.415Z,17.65
2023-03-07T00:53:50.750Z,18.60
2023-03-07T00:56:22.289Z,18.13
2023-03-07T00:58:50.516Z,15.90
2023-03-07T01:01:23.762Z,16.23
2023-03-07T01:03:53.871Z,20.77
2023-03-07T01:06:24.118Z,16.67
2023-03-07T01:08:52.728Z,20.02
2023-03-07T01:11:20.421Z,17.75
2023-03-07T01:13:47.766Z,20.23
2023-03-07T01:16:24.478Z,15.73
2023-03-07T01:18:54.561Z,15.00
2023-03-07T01:21:32.007Z,18.25
2023-03-07T01:24:03.020Z,19.73
2023-03-07T01:26:32.483Z,17.25
2023-03-07T01:29:02.780Z,15.50
2023-03-07T01:31:34.206Z,13.07
2023-03-07T01:34:03.000Z,17.10
2023-03-07T01:36:35.336Z,15.43
2023-03-07T01:39:14.652Z,16.88
2023-03-07T01:41:47.768Z,15.73
2023-03-07T01:44:22.329Z,15.52
2023-03-07T01:46:53.552Z,17.23
2023-03-07T01:49:32.804Z,17.75
2023-03-07T01:52:03.210Z,15.68
2023-03-07T01:54:32.893Z,14.40
2023-03-07T01:57:04.620Z,13.50
2023-03-07T01:59:36.884Z,13.15
2023-03-07T02:02:10.207Z,15.07
2023-03-07T02:05:06.771Z,12.20
2023-03-07T02:07:40.774Z,16.13
2023-03-07T02:10:10.892Z,17.52
2023-03-07T02:12:40.447Z,16.60
2023-03-07T02:15:10.541Z,16.33
2023-03-07T02:17:40.092Z,16.75
2023-03-07T02:20:35.467Z,20.58
2023-03-07T02:23:04.779Z,15.57
2023-03-07T02:25:39.545Z,16.02
2023-03-07T02:28:11.813Z,16.88
2023-03-07T02:30:52.139Z,15.98
2023-03-07T02:33:23.235Z,17.30
2023-03-07T02:35:56.096Z,17.95
2023-03-07T02:38:24.909Z,16.27
2023-03-07T02:40:55.327Z,18.55
2023-03-07T02:43:23.433Z,19.58
2023-03-07T02:45:50.833Z,22.05
2023-03-07T02:48:18.581Z,20.10
2023-03-07T02:50:45.799Z,17.15
2023-03-07T02:53:13.420Z,16.05
2023-03-07T02:55:40.672Z,17.65
2023-03-07T02:58:08.367Z,17.58
2023-03-07T03:00:37.053Z,17.65
2023-03-07T03:03:05.191Z,17.85
2023-03-07T03:05:32.592Z,16.45
2023-03-07T03:08:00.263Z,16.42
2023-03-07T03:10:27.540Z,19.58
2023-03-07T03:12:55.535Z,20.48
2023-03-07T03:15:23.744Z,20.70
2023-03-07T03:17:54.148Z,18.98
2023-03-07T03:20:21.477Z,17.45
2023-03-07T03:22:52.293Z,15.95
2023-03-07T03:25:23.166Z,14.68
2023-03-07T03:27:51.207Z,16.55
2023-03-07T03:30:20.237Z,18.30
2023-03-07T03:32:47.957Z,17.60
2023-03-07T03:35:17.356Z,17.38
2023-03-07T03:37:46.005Z,17.65
2023-03-07T03:40:17.684Z,18.70
2023-03-07T03:42:46.937Z,17.50
2023-03-07T03:45:17.176Z,19.15
2023-03-07T03:47:44.741Z,19.83
2023-03-07T03:50:12.608Z,22.05
2023-03-07T03:52:40.655Z,20.15
2023-03-07T03:55:09.432Z,19.52
2023-03-07T03:57:37.013Z,21.20
2023-03-07T04:00:05.845Z,28.38
2023-03-07T04:02:40.430Z,20.40
2023-03-07T04:05:12.208Z,22.55
2023-03-07T04:07:39.848Z,24.35
2023-03-07T04:10:07.826Z,25.70
2023-03-07T04:12:35.897Z,22.85
2023-03-07T04:15:07.274Z,27.52
2023-03-07T04:17:35.788Z,22.73
2023-03-07T04:20:04.932Z,24.23
2023-03-07T04:22:33.459Z,22.48
2023-03-07T04:25:00.713Z,18.80
2023-03-07T04:27:28.377Z,20.92
2023-03-07T04:29:55.973Z,23.40
2023-03-07T04:32:23.708Z,21.35
2023-03-07T04:34:51.034Z,21.63
2023-03-07T04:37:18.575Z,21.02
2023-03-07T04:39:45.845Z,19.90
2023-03-07T04:42:14.336Z,17.67
2023-03-07T04:44:41.653Z,19.73
2023-03-07T04:47:09.272Z,21.33
2023-03-07T04:49:37.413Z,23.83
2023-03-07T04:52:06.882Z,20.73
2023-03-07T04:54:34.524Z,19.95
2023-03-07T04:57:03.998Z,20.73
2023-03-07T04:59:31.855Z,20.27
2023-03-07T05:01:59.686Z,18.90
2023-03-07T05:04:27.913Z,25.17
2023-03-07T05:06:56.210Z,21.45
2023-03-07T05:09:23.689Z,23.80
2023-03-07T05:11:53.527Z,22.13
2023-03-07T05:14:21.780Z,22.65
2023-03-07T05:16:49.598Z,20.40
2023-03-07T05:19:17.003Z,27.50
2023-03-07T05:21:44.865Z,21.90
2023-03-07T05:24:13.023Z,25.73
2023-03-07T05:26:40.973Z,23.88
2023-03-07T05:29:08.235Z,22.13
2023-03-07T05:31:36.397Z,24.50
2023-03-07T05:34:05.864Z,24.27
2023-03-07T05:36:33.512Z,24.83
2023-03-07T05:39:01.166Z,21.92
2023-03-07T05:41:29.094Z,26.98
2023-03-07T05:43:56.514Z,24.83
2023-03-07T05:46:24.640Z,25.17
2023-03-07T05:48:52.211Z,30.58
2023-03-07T05:51:19.803Z,26.75
2023-03-07T05:53:47.262Z,24.38
2023-03-07T05:56:15.204Z,28.60
2023-03-07T05:58:42.837Z,24.88
2023-03-07T06:01:10.784Z,25.83
2023-03-07T06:03:38.597Z,28.40
2023-03-07T06:06:06.582Z,31.45
2023-03-07T06:08:33.889Z,28.80
2023-03-07T06:11:01.826Z,28.42
2023-03-07T06:13:31.134Z,30.15
2023-03-07T06:15:58.807Z,31.52
2023-03-07T06:18:26.563Z,29.77
2023-03-07T06:21:06.281Z,28.90
2023-03-07T06:23:38.404Z,25.45
2023-03-07T06:26:12.590Z,29.65
2023-03-07T06:28:42.686Z,27.33
2023-03-07T06:31:14.005Z,25.98
2023-03-07T06:33:42.429Z,30.08
2023-03-07T06:36:13.405Z,29.70
2023-03-07T06:38:43.027Z,29.42
2023-03-07T06:41:10.870Z,28.92
2023-03-07T06:43:38.540Z,28.17
2023-03-07T06:46:06.585Z,21.27
2023-03-07T06:48:38.373Z,21.92
2023-03-07T06:51:10.559Z,20.45
2023-03-07T06:53:41.228Z,23.48
2023-03-07T06:56:09.193Z,23.25
2023-03-07T06:58:37.652Z,21.85
2023-03-07T07:01:05.718Z,23.85
2023-03-07T07:03:35.494Z,24.10
2023-03-07T07:06:03.785Z,29.77
2023-03-07T07:08:31.745Z,27.33
2023-03-07T07:10:59.589Z,27.60
2023-03-07T07:13:27.668Z,24.42
2023-03-07T07:15:55.675Z,23.83
2023-03-07T07:18:24.915Z,24.10
2023-03-07T07:20:56.564Z,23.13
2023-03-07T07:23:27.127Z,25.83
2023-03-07T07:25:55.305Z,22.55
2023-03-07T07:28:22.875Z,30.67
2023-03-07T07:30:50.657Z,34.85
2023-03-07T07:33:18.101Z,27.70
2023-03-07T07:35:49.359Z,23.75
2023-03-07T07:38:16.950Z,24.58
2023-03-07T07:40:45.260Z,29.02
2023-03-07T07:43:18.123Z,23.52
2023-03-07T07:45:50.330Z,23.45
2023-03-07T07:48:20.826Z,23.17
2023-03-07T07:50:48.735Z,25.38
2023-03-07T07:53:18.823Z,22.60
2023-03-07T07:55:49.021Z,21.95
2023-03-07T07:58:17.368Z,21.13
2023-03-07T08:00:46.225Z,24.25
2023-03-07T08:03:13.547Z,22.88
2023-03-07T08:05:45.918Z,24.23
2023-03-07T08:08:13.300Z,26.15
2023-03-07T08:10:43.222Z,25.52
2023-03-07T08:13:14.372Z,26.90
2023-03-07T08:15:42.713Z,29.60
2023-03-07T08:18:12.700Z,28.20
2023-03-07T08:20:41.381Z,21.23
2023-03-07T08:23:09.248Z,25.38
2023-03-07T08:25:36.965Z,25.35
2023-03-07T08:28:05.542Z,22.60
2023-03-07T08:30:35.232Z,24.00
2023-03-07T08:33:02.622Z,25.70
2023-03-07T08:35:31.135Z,21.50
2023-03-07T08:38:01.633Z,26.65
2023-03-07T08:40:30.782Z,23.73
2023-03-07T08:43:01.061Z,26.58
2023-03-07T08:45:28.887Z,19.52
2023-03-07T08:47:56.978Z,21.25
2023-03-07T08:50:27.094Z,24.92
2023-03-07T08:52:54.530Z,20.75
2023-03-07T08:55:22.059Z,21.70
2023-03-07T08:57:49.445Z,20.25
2023-03-07T09:00:17.964Z,24.00
2023-03-07T09:02:46.481Z,21.70
2023-03-07T09:05:14.435Z,23.70
2023-03-07T09:07:42.501Z,22.08
2023-03-07T09:10:11.770Z,22.42
2023-03-07T09:12:39.064Z,25.80
2023-03-07T09:15:07.092Z,22.95
2023-03-07T09:17:34.445Z,27.77
2023-03-07T09:20:02.076Z,29.10
2023-03-07T09:22:29.387Z,30.60
2023-03-07T09:24:56.946Z,29.00
2023-03-07T09:27:24.738Z,30.30
2023-03-07T09:29:52.264Z,27.50
2023-03-07T09:32:19.542Z,35.10
2023-03-07T09:34:47.169Z,29.13
2023-03-07T09:37:14.778Z,33.90
2023-03-07T09:39:42.320Z,38.00
2023-03-07T09:43:03.601Z,35.78
2023-03-07T09:45:49.845Z,41.33
2023-03-07T09:48:48.038Z,37.58
2023-03-07T09:51:44.975Z,38.55
2023-03-07T09:54:17.327Z,44.58
2023-03-07T09:56:49.661Z,44.22
2023-03-07T09:59:38.383Z,42.90
2023-03-07T10:02:23.987Z,48.83
2023-03-07T10:05:18.636Z,49.75
2023-03-07T10:07:46.217Z,52.28
2023-03-07T10:10:33.239Z,57.88
2023-03-07T10:13:17.280Z,53.88
2023-03-07T10:15:56.707Z,55.53
2023-03-07T10:18:33.029Z,61.90
2023-03-07T10:21:12.401Z,58.28
2023-03-07T10:24:04.464Z,65.22
2023-03-07T10:26:47.783Z,64.03
2023-03-07T10:29:19.095Z,62.83
2023-03-07T10:31:51.589Z,65.10
2023-03-07T10:34:32.553Z,67.00
2023-03-07T10:37:16.253Z,73.80
2023-03-07T10:39:52.452Z,76.32
2023-03-07T10:42:22.749Z,76.93
2023-03-07T10:44:53.919Z,76.13
2023-03-07T10:47:26.835Z,77.63
2023-03-07T10:50:08.667Z,73.55
2023-03-07T10:52:41.320Z,70.20
2023-03-07T10:55:42.303Z,75.40
2023-03-07T10:58:20.475Z,78.32
2023-03-07T11:01:07.389Z,70.55
2023-03-07T11:03:54.243Z,65.63
2023-03-07T11:06:40.314Z,63.42
2023-03-07T11:09:11.317Z,62.53
2023-03-07T11:11:39.138Z,64.22
2023-03-07T11:14:14.487Z,60.15
2023-03-07T11:16:49.676Z,58.25
2023-03-07T11:19:38.640Z,59.25
2023-03-07T11:22:36.751Z,53.70
2023-03-07T11:25:20.755Z,63.53
2023-03-07T11:27:58.973Z,61.13
2023-03-07T11:30:35.639Z,60.72
2023-03-07T11:33:28.317Z,59.05
2023-03-07T11:36:14.660Z,56.17
2023-03-07T11:39:00.456Z,60.85
2023-03-07T11:41:42.195Z,54.75
2023-03-07T11:44:35.448Z,61.70
2023-03-07T11:47:17.848Z,59.53
2023-03-07T11:49:46.887Z,62.92
2023-03-07T11:52:39.082Z,63.90
2023-03-07T11:55:46.790Z,58.97
2023-03-07T11:58:26.288Z,60.33
2023-03-07T12:00:59.745Z,56.15
2023-03-07T12:03:27.046Z,59.60
2023-03-07T12:06:03.434Z,54.97
2023-03-07T12:08:52.109Z,56.20
2023-03-07T12:11:57.866Z,58.17
2023-03-07T12:14:47.196Z,54.65
2023-03-07T12:17:48.932Z,54.60
2023-03-07T12:20:47.059Z,55.05
2023-03-07T12:23:39.542Z,54.33
2023-03-07T12:26:17.378Z,57.13
2023-03-07T12:28:52.168Z,59.30
2023-03-07T12:31:28.393Z,57.97
2023-03-07T12:34:11.923Z,56.13
2023-03-07T12:36:50.971Z,56.05
2023-03-07T12:39:30.033Z,56.00
2023-03-07T12:42:05.987Z,49.50
2023-03-07T12:44:43.047Z,49.42
2023-03-07T12:47:47.642Z,49.08
2023-03-07T12:50:20.400Z,50.47
2023-03-07T12:53:07.136Z,46.72
2023-03-07T12:55:46.497Z,47.42
2023-03-07T12:58:50.412Z,44.95
2023-03-07T13:01:52.377Z,46.40
2023-03-07T13:04:43.312Z,33.30
2023-03-07T13:07:20.660Z,41.38
2023-03-07T13:09:50.992Z,35.88
2023-03-07T13:12:25.556Z,38.08
2023-03-07T13:14:55.454Z,32.45
2023-03-07T13:17:34.959Z,31.38
2023-03-07T13:20:05.000Z,31.35
2023-03-07T13:22:32.544Z,29.90
2023-03-07T13:25:21.556Z,28.45
2023-03-07T13:27:56.587Z,26.00
2023-03-07T13:30:30.064Z,27.55
2023-03-07T13:32:59.336Z,26.60
2023-03-07T13:35:29.614Z,29.42
2023-03-07T13:37:58.213Z,24.17
2023-03-07T13:40:43.691Z,23.10
2023-03-07T13:43:25.000Z,21.45
2023-03-07T13:46:16.185Z,22.80
2023-03-07T13:48:43.697Z,22.23
2023-03-07T13:51:12.373Z,23.08
2023-03-07T13:54:01.478Z,21.05
2023-03-07T13:56:35.159Z,21.90
2023-03-07T13:59:14.966Z,19.67
2023-03-07T14:01:53.950Z,21.60
2023-03-07T14:04:39.266Z,20.00
2023-03-07T14:07:20.798Z,22.23
2023-03-07T14:10:09.887Z,18.67
2023-03-07T14:13:05.645Z,21.27
2023-03-07T14:15:38.697Z,20.98
2023-03-07T14:18:30.912Z,18.65
2023-03-07T14:21:17.043Z,20.00
2023-03-07T14:24:06.048Z,15.98
2023-03-07T14:26:44.995Z,18.10
2023-03-07T14:29:26.124Z,18.05
2023-03-07T14:31:57.050Z,17.15
2023-03-07T14:34:24.319Z,18.98
2023-03-07T14:37:04.553Z,18.30
2023-03-07T14:39:59.237Z,18.73
2023-03-07T14:42:45.546Z,16.73
2023-03-07T14:45:15.549Z,17.15
2023-03-07T14:47:52.060Z,15.30
2023-03-07T14:50:23.489Z,16.88
2023-03-07T14:52:56.204Z,17.77
2023-03-07T14:55:36.127Z,17.17
2023-03-07T14:58:04.692Z,15.98
2023-03-07T15:00:34.039Z,17.58
2023-03-07T15:03:09.878Z,15.98
2023-03-07T15:05:48.405Z,13.77
2023-03-07T15:08:23.737Z,17.05
2023-03-07T15:11:04.397Z,16.42
2023-03-07T15:13:54.697Z,17.20
2023-03-07T15:16:28.552Z,15.88
2023-03-07T15:19:06.477Z,17.08
2023-03-07T15:21:40.528Z,16.13
2023-03-07T15:24:22.884Z,17.20
2023-03-07T15:26:53.612Z,17.88
2023-03-07T15:29:26.912Z,16.75
2023-03-07T15:32:07.351Z,16.13
2023-03-07T15:34:38.717Z,18.50
2023-03-07T15:37:24.127Z,17.67
2023-03-07T15:40:08.360Z,18.83
2023-03-07T15:42:50.296Z,15.73
2023-03-07T15:45:33.933Z,17.23
2023-03-07T15:48:29.826Z,19.27
2023-03-07T15:51:00.143Z,20.25
2023-03-07T15:53:31.866Z,19.45
2023-03-07T15:58:29.169Z,18.17
2023-03-07T16:01:17.211Z,21.13
2023-03-07T16:03:53.367Z,17.95
2023-03-07T16:06:39.337Z,20.77
2023-03-07T16:09:11.477Z,18.75
2023-03-07T16:11:40.266Z,19.45
2023-03-07T16:14:21.771Z,19.90
2023-03-07T16:16:49.991Z,19.60
2023-03-07T16:19:17.315Z,22.73
2023-03-07T16:21:44.844Z,22.25
2023-03-07T16:24:12.410Z,21.02
2023-03-07T16:26:43.100Z,22.92
2023-03-07T16:29:19.733Z,21.88
2023-03-07T16:31:47.458Z,23.13
2023-03-07T16:34:20.612Z,22.60
2023-03-07T16:36:48.269Z,25.77
2023-03-07T16:39:18.080Z,23.60
2023-03-07T16:41:48.937Z,24.20
2023-03-07T16:44:18.653Z,24.38
2023-03-07T16:46:52.749Z,23.02
2023-03-07T16:49:21.141Z,19.08
2023-03-07T16:51:59.669Z,24.63
2023-03-07T16:54:32.842Z,22.02
2023-03-07T16:57:02.209Z,22.38
2023-03-07T16:59:34.900Z,18.60
2023-03-07T17:02:10.748Z,23.85
2023-03-07T17:04:38.048Z,21.75
2023-03-07T17:07:12.924Z,19.65
2023-03-07T17:09:40.695Z,19.77
2023-03-07T17:12:08.662Z,18.35
2023-03-07T17:14:36.244Z,17.77
2023-03-07T17:17:05.031Z,19.17
2023-03-07T17:19:33.201Z,14.70
2023-03-07T17:22:02.893Z,12.88
2023-03-07T17:24:31.040Z,11.23
2023-03-07T17:27:00.649Z,9.25
2023-03-07T17:29:36.420Z,9.45
2023-03-07T17:32:04.462Z,5.93
2023-03-07T17:34:34.294Z,6.45
2023-03-07T17:37:02.459Z,5.30
2023-03-07T17:39:30.926Z,6.72
2023-03-07T17:41:59.167Z,6.22
2023-03-07T17:44:26.683Z,3.35
2023-03-07T17:46:54.673Z,2.80
2023-03-07T17:49:23.049Z,4.40
2023-03-07T17:51:52.134Z,3.00
2023-03-07T17:54:20.118Z,2.17
2023-03-07T17:56:47.694Z,2.70
2023-03-07T17:59:15.094Z,1.25
2023-03-07T18:01:42.910Z,3.88
2023-03-07T18:04:10.314Z,3.00
2023-03-07T18:06:39.959Z,3.50
2023-03-07T18:09:09.283Z,5.20
2023-03-07T18:11:36.922Z,5.70
2023-03-07T18:14:04.150Z,2.65
2023-03-07T18:16:31.760Z,2.58
2023-03-07T18:19:01.763Z,4.15
2023-03-07T18:21:30.543Z,2.85
2023-03-07T18:23:58.163Z,3.80
2023-03-07T18:26:25.866Z,4.47
2023-03-07T18:28:53.924Z,4.13
2023-03-07T18:31:28.766Z,5.43
2023-03-07T18:33:56.608Z,5.47
2023-03-07T18:36:25.302Z,3.45
2023-03-07T18:38:52.706Z,5.78
2023-03-07T18:41:22.578Z,8.38
2023-03-07T18:43:50.560Z,5.85
2023-03-07T18:46:20.166Z,7.07
2023-03-07T18:48:49.150Z,3.70
2023-03-07T18:51:23.752Z,3.70
2023-03-07T18:53:52.571Z,3.50
2023-03-07T18:56:20.381Z,9.15
2023-03-07T18:58:48.270Z,5.45
2023-03-07T19:01:21.835Z,5.38
2023-03-07T19:03:51.348Z,3.38
2023-03-07T19:06:20.336Z,6.63
2023-03-07T19:08:47.643Z,6.90
2023-03-07T19:11:16.248Z,4.03
2023-03-07T19:13:43.895Z,3.88
2023-03-07T19:16:19.257Z,5.85
2023-03-07T19:18:47.101Z,5.05
2023-03-07T19:21:19.139Z,5.18
2023-03-07T19:23:47.103Z,3.38
2023-03-07T19:26:19.555Z,2.53
2023-03-07T19:28:48.597Z,5.50
2023-03-07T19:31:18.933Z,4.18
2023-03-07T19:33:48.066Z,4.82
2023-03-07T19:36:20.327Z,6.00
2023-03-07T19:41:22.320Z,6.10
2023-03-07T19:43:50.151Z,6.63
2023-03-07T19:46:21.282Z,8.25
2023-03-07T19:48:48.817Z,5.30
2023-03-07T19:51:18.860Z,5.45
2023-03-07T19:53:46.815Z,6.32
2023-03-07T19:56:22.562Z,5.25
2023-03-07T19:58:50.345Z,4.68
2023-03-07T20:01:20.209Z,2.83
2023-03-07T20:03:48.823Z,3.42
2023-03-07T20:06:24.560Z,4.15
2023-03-07T20:08:53.370Z,6.88
2023-03-07T20:11:27.411Z,4.55
2023-03-07T20:13:58.165Z,5.70
2023-03-07T20:16:29.142Z,3.47
2023-03-07T20:19:02.379Z,4.43
2023-03-07T20:21:30.287Z,4.63
2023-03-07T20:24:00.813Z,3.92
2023-03-07T20:26:31.847Z,6.03
2023-03-07T20:29:00.245Z,2.78
2023-03-07T20:31:28.519Z,4.95
2023-03-07T20:33:58.440Z,4.78
2023-03-07T20:36:29.033Z,7.03
2023-03-07T20:38:58.481Z,3.85
2023-03-07T20:41:31.829Z,4.90
2023-03-07T20:44:04.573Z,6.50
2023-03-07T20:46:33.196Z,4.68
2023-03-07T20:49:01.843Z,6.68
2023-03-07T20:51:32.180Z,4.95
2023-03-07T20:54:01.669Z,9.02
2023-03-07T20:56:31.520Z,5.78
2023-03-07T20:59:00.023Z,4.20
2023-03-07T21:01:29.866Z,4.93
2023-03-07T21:04:02.038Z,3.70
2023-03-07T21:06:29.617Z,3.55
2023-03-07T21:08:59.517Z,4.20
2023-03-07T21:11:28.467Z,5.30
2023-03-07T21:13:55.730Z,5.65
2023-03-07T21:16:25.347Z,6.30
2023-03-07T21:18:52.790Z,3.00
2023-03-07T21:21:21.702Z,7.22
2023-03-07T21:23:49.038Z,4.38
2023-03-07T21:26:22.580Z,3.28
2023-03-07T21:28:51.408Z,2.97
2023-03-07T21:31:25.254Z,6.93
2023-03-07T21:33:55.288Z,4.60
2023-03-07T21:36:24.208Z,4.10
2023-03-07T21:38:51.613Z,2.45
2023-03-07T21:41:22.013Z,5.57
2023-03-07T21:43:49.577Z,6.70
2023-03-07T21:46:17.830Z,9.30
2023-03-07T21:48:45.077Z,3.22
2023-03-07T21:51:12.831Z,5.88
2023-03-07T21:53:40.351Z,6.95
2023-03-07T21:56:10.583Z,5.97
2023-03-07T21:58:39.116Z,8.52
2023-03-07T22:01:14.972Z,2.75
2023-03-07T22:03:42.785Z,2.72
2023-03-07T22:06:13.728Z,3.65
2023-03-07T22:08:41.833Z,3.88
2023-03-07T22:11:11.523Z,8.52
2023-03-07T22:13:40.874Z,4.15
2023-03-07T22:16:11.982Z,7.78
2023-03-07T22:18:39.275Z,5.18
2023-03-07T22:21:14.220Z,5.75
2023-03-07T22:23:42.642Z,6.45
2023-03-07T22:26:11.897Z,8.57
2023-03-07T22:28:41.092Z,4.05
2023-03-07T22:31:12.169Z,3.28
2023-03-07T22:33:41.213Z,4.70
2023-03-07T22:36:12.206Z,3.38
2023-03-07T22:38:40.072Z,5.07
2023-03-07T22:41:11.842Z,6.00
2023-03-07T22:43:39.488Z,7.43
2023-03-07T22:46:08.132Z,9.57
2023-03-07T22:48:35.752Z,5.72
2023-03-07T22:51:03.994Z,4.28
2023-03-07T22:53:32.663Z,4.22
2023-03-07T22:56:00.914Z,8.20
2023-03-07T22:58:30.387Z,4.68
2023-03-07T23:00:58.267Z,8.35
2023-03-07T23:03:25.524Z,5.50
2023-03-07T23:05:53.076Z,3.67
2023-03-07T23:08:20.650Z,6.75
2023-03-07T23:10:48.266Z,3.85
2023-03-07T23:13:17.117Z,2.33
2023-03-07T23:15:44.822Z,5.07
2023-03-07T23:18:12.220Z,5.13
2023-03-07T23:20:39.843Z,3.75
2023-03-07T23:23:07.097Z,3.95
2023-03-07T23:25:34.590Z,2.85
2023-03-07T23:28:01.983Z,4.28
2023-03-07T23:30:29.820Z,3.00
2023-03-07T23:32:57.103Z,4.60
2023-03-07T23:35:24.635Z,7.03
2023-03-07T23:37:51.924Z,4.93
2023-03-07T23:40:19.550Z,3.28
2023-03-07T23:42:46.806Z,4.50
2023-03-07T23:45:14.340Z,2.17
2023-03-07T23:47:41.581Z,6.13
2023-03-07T23:50:10.207Z,5.07
2023-03-07T23:52:37.534Z,2.05
2023-03-07T23:55:09.100Z,4.88
2023-03-07T23:57:37.555Z,3.90
